Time;durP1;ratioP1;P1;durP2;ratioP2;P2;SDS_P1;SDS_P2;PMS_P1;PMS_P2;Temp;Humidity;BMP_temperature;BMP_pressure;BME280_temperature;BME280_humidity;BME280_pressure;Samples;Min_cycle;Max_cycle;Signal;HPM_P1;HPM_P2
2020/12/09 00:01:36;;;;;;;18.62;7.67;;;;;;;4.38;55.15;152263.38;1752819;81;21330;-73
2020/12/09 00:04:11;;;;;;;15.03;6.62;;;;;;;4.39;54.98;152264.70;1748496;80;21583;-73
2020/12/09 00:06:44;;;;;;;15.95;6.90;;;;;;;4.42;55.04;152273.81;1760123;80;21329;-73
2020/12/09 00:09:19;;;;;;;18.42;7.25;;;;;;;4.43;54.84;152277.70;1753483;81;21338;-73
2020/12/09 00:11:55;;;;;;;21.20;7.33;;;;;;;4.52;54.96;152301.16;1752401;80;21184;-72
2020/12/09 00:14:27;;;;;;;18.77;7.67;;;;;;;4.63;54.88;152328.53;1739812;80;21275;-74
2020/12/09 00:16:59;;;;;;;17.65;7.05;;;;;;;4.71;55.18;152350.70;1755096;81;21172;-73
2020/12/09 00:19:32;;;;;;;18.65;6.60;;;;;;;4.86;55.41;152388.50;1752292;81;21240;-73
2020/12/09 00:22:10;;;;;;;19.23;8.03;;;;;;;5.04;55.35;152436.73;1750536;80;21385;-74
2020/12/09 00:24:42;;;;;;;15.75;6.47;;;;;;;5.26;55.06;152494.09;1747109;81;21249;-72
2020/12/09 00:27:14;;;;;;;14.50;5.80;;;;;;;5.40;55.04;152531.91;1750224;80;21355;-73
2020/12/09 00:29:47;;;;;;;18.98;6.40;;;;;;;5.38;54.07;152525.41;1736867;81;21176;-73
2020/12/09 00:32:20;;;;;;;13.13;5.85;;;;;;;5.38;54.44;152526.69;1747543;81;21237;-72
2020/12/09 00:34:54;;;;;;;12.82;5.95;;;;;;;5.86;53.86;152650.70;1759582;81;21354;-72
2020/12/09 00:37:26;;;;;;;17.73;7.17;;;;;;;5.52;54.78;152561.94;1750093;81;21320;-74
2020/12/09 00:39:59;;;;;;;14.05;6.37;;;;;;;5.54;54.27;152568.44;1753519;80;21236;-72
2020/12/09 00:42:33;;;;;;;13.05;5.90;;;;;;;6.13;53.83;152722.47;1751301;81;21332;-72
2020/12/09 00:45:08;;;;;;;18.05;7.22;;;;;;;5.85;53.90;152648.09;1752707;80;21305;-72
2020/12/09 00:47:42;;;;;;;16.42;6.87;;;;;;;5.69;54.22;152606.27;1749762;81;21347;-74
2020/12/09 00:52:48;;;;;;;19.82;6.50;;;;;;;5.56;54.12;152573.67;1750775;81;21250;-74
2020/12/09 00:55:22;;;;;;;13.65;5.85;;;;;;;5.63;54.18;152590.62;1735190;81;21308;-73
2020/12/09 00:57:56;;;;;;;16.02;6.15;;;;;;;5.66;53.00;152599.75;1729895;82;21178;-72
2020/12/09 01:00:29;;;;;;;14.95;6.70;;;;;;;5.67;52.76;152602.38;1736540;81;21194;-73
2020/12/09 01:03:03;;;;;;;17.02;6.62;;;;;;;5.65;54.08;152597.14;1751611;81;21221;-72
2020/12/09 01:05:36;;;;;;;15.20;7.28;;;;;;;5.61;54.29;152586.69;1747865;81;21208;-72
2020/12/09 01:08:08;;;;;;;16.05;7.85;;;;;;;5.67;52.69;152601.09;1746505;81;21216;-72
2020/12/09 01:10:41;;;;;;;15.08;5.72;;;;;;;5.58;52.79;152577.56;1755149;80;21244;-74
2020/12/09 01:13:15;;;;;;;12.58;4.92;;;;;;;5.57;53.47;152574.95;1743001;81;21249;-74
2020/12/09 01:15:48;;;;;;;17.45;6.30;;;;;;;5.70;52.93;152610.22;1731206;81;21349;-73
2020/12/09 01:18:20;;;;;;;13.65;6.37;;;;;;;5.59;52.47;152580.17;1768797;80;21433;-73
2020/12/09 01:20:52;;;;;;;11.73;5.60;;;;;;;5.61;53.30;152586.69;1763512;80;21356;-74
2020/12/09 01:23:25;;;;;;;14.40;6.12;;;;;;;5.61;52.77;152586.69;1736951;81;21413;-73
2020/12/09 01:25:58;;;;;;;15.90;6.08;;;;;;;5.77;54.06;152627.22;1757432;80;21315;-74
2020/12/09 01:28:30;;;;;;;10.85;5.37;;;;;;;5.91;52.93;152663.72;1762002;80;21182;-73
2020/12/09 01:31:03;;;;;;;11.48;5.62;;;;;;;5.91;53.67;152663.72;1750790;80;21320;-73
2020/12/09 01:33:35;;;;;;;11.68;5.55;;;;;;;5.82;52.50;152640.25;1755104;80;21205;-74
2020/12/09 01:36:07;;;;;;;13.35;5.78;;;;;;;5.85;52.88;152649.38;1757423;80;21334;-74
2020/12/09 01:38:40;;;;;;;13.58;5.25;;;;;;;5.89;52.43;152659.83;1750085;80;21354;-74
2020/12/09 01:41:13;;;;;;;16.80;6.28;;;;;;;6.00;53.56;152687.25;1766946;80;21153;-73
2020/12/09 01:43:48;;;;;;;10.98;5.97;;;;;;;6.03;53.35;152696.38;1747867;81;21379;-74
2020/12/09 01:46:31;;;;;;;9.85;4.67;;;;;;;6.11;53.33;152715.97;1764131;80;21304;-73
2020/12/09 01:49:04;;;;;;;15.65;5.30;;;;;;;6.11;53.07;152715.97;1763082;80;21405;-74
2020/12/09 01:51:37;;;;;;;19.10;5.42;;;;;;;6.15;53.08;152726.38;1758412;80;21173;-73
2020/12/09 01:54:11;;;;;;;11.68;5.35;;;;;;;6.14;52.90;152725.09;1751789;81;21230;-75
2020/12/09 01:56:43;;;;;;;11.15;5.65;;;;;;;6.16;53.32;152730.31;1752232;81;21256;-74
2020/12/09 01:59:18;;;;;;;9.90;4.67;;;;;;;6.12;52.16;152718.58;1792245;79;21179;-74
2020/12/09 02:01:51;;;;;;;9.45;5.33;;;;;;;6.14;52.46;152725.09;1753217;81;21344;-74
2020/12/09 02:04:23;;;;;;;14.43;4.47;;;;;;;6.22;52.60;152745.95;1757070;80;21846;-73
2020/12/09 02:06:55;;;;;;;11.35;4.58;;;;;;;6.29;52.96;152765.55;1743135;81;21189;-74
2020/12/09 02:09:28;;;;;;;12.45;5.37;;;;;;;6.38;52.53;152789.03;1761951;80;21416;-73
2020/12/09 02:12:01;;;;;;;9.75;5.30;;;;;;;6.37;52.06;152786.42;1761058;80;21918;-74
2020/12/09 02:14:34;;;;;;;10.90;5.25;;;;;;;6.41;52.28;152795.59;1760167;80;21184;-74
2020/12/09 02:17:06;;;;;;;13.30;6.40;;;;;;;6.49;53.22;152816.47;1758483;80;21224;-73
2020/12/09 02:19:40;;;;;;;11.03;5.17;;;;;;;6.52;53.03;152825.59;1760739;80;21164;-72
2020/12/09 02:22:14;;;;;;;10.95;6.03;;;;;;;6.68;52.68;152866.06;1751440;80;21375;-74
2020/12/09 02:24:47;;;;;;;8.28;4.55;;;;;;;6.66;52.32;152862.17;1761101;80;21215;-72
2020/12/09 02:27:20;;;;;;;13.58;5.47;;;;;;;6.71;52.95;152875.20;1754416;80;21358;-73
2020/12/09 02:29:53;;;;;;;12.55;5.30;;;;;;;6.83;53.03;152905.27;1762846;80;22253;-73
2020/12/09 02:32:25;;;;;;;11.25;4.80;;;;;;;6.77;52.88;152890.91;1748963;80;21232;-71
2020/12/09 02:34:58;;;;;;;12.05;4.92;;;;;;;6.86;52.75;152913.11;1749239;79;21186;-72
2020/12/09 02:37:32;;;;;;;11.08;5.33;;;;;;;6.81;52.66;152900.03;1731321;82;21257;-73
2020/12/09 02:40:05;;;;;;;11.50;5.08;;;;;;;6.90;52.39;152924.86;1763705;81;21697;-74
2020/12/09 02:42:38;;;;;;;14.03;5.15;;;;;;;6.92;52.10;152928.77;1762393;81;21700;-73
2020/12/09 02:45:16;;;;;;;9.53;4.75;;;;;;;7.16;51.65;152992.81;1766020;81;21210;-73
2020/12/09 02:47:49;;;;;;;14.53;6.20;;;;;;;6.86;52.23;152914.41;1744885;81;21383;-73
2020/12/09 02:50:21;;;;;;;10.93;5.05;;;;;;;6.94;51.65;152934.00;1760301;81;21919;-72
2020/12/09 02:52:54;;;;;;;14.33;5.20;;;;;;;6.86;51.35;152914.41;1763293;80;21430;-73
2020/12/09 02:55:26;;;;;;;15.68;5.70;;;;;;;6.84;51.87;152909.16;1768523;79;21327;-73
2020/12/09 02:58:00;;;;;;;10.32;4.72;;;;;;;6.88;51.66;152919.62;1773816;79;21320;-73
2020/12/09 03:00:32;;;;;;;11.25;4.72;;;;;;;6.91;51.56;152927.48;1800416;79;21209;-72
2020/12/09 03:03:05;;;;;;;10.10;5.40;;;;;;;6.97;50.98;152943.12;1784367;79;21672;-72
2020/12/09 03:05:39;;;;;;;12.90;5.55;;;;;;;7.05;50.89;152962.73;1796111;80;21333;-73
2020/12/09 03:08:11;;;;;;;12.70;5.58;;;;;;;7.08;50.78;152970.59;1775930;79;21240;-74
2020/12/09 03:10:44;;;;;;;15.50;6.47;;;;;;;7.03;50.68;152958.83;1798077;80;21178;-73
2020/12/09 03:13:17;;;;;;;9.70;5.37;;;;;;;7.01;50.84;152953.59;1770021;79;21206;-73
2020/12/09 03:15:50;;;;;;;12.95;5.40;;;;;;;7.02;50.20;152956.22;1784488;79;21249;-73
2020/12/09 03:18:22;;;;;;;14.35;5.45;;;;;;;6.99;50.34;152948.36;1783462;79;21208;-73
2020/12/09 03:20:54;;;;;;;12.30;5.92;;;;;;;7.05;50.10;152962.73;1785934;79;21197;-74
2020/12/09 03:23:27;;;;;;;11.50;6.00;;;;;;;6.93;49.98;152932.72;1773826;79;21320;-73
2020/12/09 03:25:59;;;;;;;19.62;7.62;;;;;;;6.95;50.05;152937.89;1783349;79;21166;-73
2020/12/09 03:28:31;;;;;;;14.85;6.65;;;;;;;6.89;50.40;152920.91;1797320;79;21194;-72
2020/12/09 03:31:05;;;;;;;13.43;5.55;;;;;;;7.03;50.54;152958.83;1775205;78;21328;-73
2020/12/09 03:33:37;;;;;;;19.62;8.13;;;;;;;7.06;50.58;152965.34;1782207;79;21390;-73
2020/12/09 03:36:11;;;;;;;12.20;4.50;;;;;;;7.15;50.52;152991.47;1799244;80;21198;-73
2020/12/09 03:38:43;;;;;;;13.53;5.65;;;;;;;7.08;50.38;152971.88;1796600;79;21323;-72
2020/12/09 03:41:15;;;;;;;11.95;5.10;;;;;;;7.20;50.24;153003.22;1792645;79;21396;-74
2020/12/09 03:43:47;;;;;;;13.90;6.03;;;;;;;7.19;50.06;153000.61;1774796;79;21215;-73
2020/12/09 03:46:20;;;;;;;12.33;6.80;;;;;;;7.24;50.05;153014.98;1769207;80;21197;-72
2020/12/09 03:48:52;;;;;;;11.83;4.97;;;;;;;7.25;49.94;153017.59;1770875;80;21340;-73
2020/12/09 03:51:24;;;;;;;18.30;5.60;;;;;;;7.25;50.00;153016.31;1776059;79;21204;-72
2020/12/09 03:53:57;;;;;;;14.28;6.10;;;;;;;7.24;50.15;153014.98;1782141;79;21237;-73
2020/12/09 03:56:30;;;;;;;10.95;5.50;;;;;;;7.19;50.00;153000.61;1795439;79;21261;-71
2020/12/09 03:59:02;;;;;;;12.50;5.65;;;;;;;7.21;50.00;153007.19;1778829;80;21317;-71
2020/12/09 04:01:35;;;;;;;12.13;6.05;;;;;;;7.24;49.89;153013.69;1789506;79;21186;-70
2020/12/09 04:04:07;;;;;;;13.28;5.15;;;;;;;7.26;49.97;153018.94;1787717;79;21340;-71
2020/12/09 04:06:40;;;;;;;13.83;5.95;;;;;;;7.27;49.94;153022.83;1777758;79;21372;-73
2020/12/09 04:09:12;;;;;;;11.78;5.65;;;;;;;7.15;49.75;152990.19;1774132;79;21351;-73
2020/12/09 04:11:44;;;;;;;12.80;6.20;;;;;;;7.35;49.82;153042.44;1767431;81;21319;-72
2020/12/09 04:14:17;;;;;;;12.50;5.62;;;;;;;7.47;49.87;153075.09;1768622;81;21339;-72
2020/12/09 04:16:50;;;;;;;13.18;6.28;;;;;;;7.50;49.73;153081.66;1771265;81;21391;-73
2020/12/09 04:19:22;;;;;;;15.80;6.20;;;;;;;7.52;49.72;153086.89;1762963;80;21823;-73
2020/12/09 04:21:54;;;;;;;12.65;5.62;;;;;;;7.34;49.47;153039.83;1768602;81;21324;-72
2020/12/09 04:24:26;;;;;;;12.00;5.42;;;;;;;7.45;49.58;153068.56;1768666;81;21308;-72
2020/12/09 04:26:59;;;;;;;11.48;5.05;;;;;;;7.40;49.70;153056.81;1768574;81;21197;-72
2020/12/09 04:29:31;;;;;;;13.80;6.03;;;;;;;7.43;49.75;153064.67;1776754;79;21254;-74
2020/12/09 04:32:04;;;;;;;18.52;6.72;;;;;;;7.39;51.67;153052.91;1762268;79;21198;-72
2020/12/09 04:34:37;;;;;;;13.38;6.15;;;;;;;7.31;50.11;153033.30;1790988;79;21206;-71
2020/12/09 04:37:11;;;;;;;15.50;6.15;;;;;;;7.26;50.29;153018.94;1780143;79;21672;-72
2020/12/09 04:39:44;;;;;;;9.23;4.90;;;;;;;7.31;50.25;153031.97;1778261;79;21226;-71
2020/12/09 04:42:20;;;;;;;14.58;5.85;;;;;;;7.22;50.40;153008.47;1784823;79;21233;-71
2020/12/09 04:44:53;;;;;;;15.50;6.28;;;;;;;7.33;50.88;153037.20;1782653;79;21237;-71
2020/12/09 04:47:30;;;;;;;14.00;6.08;;;;;;;7.37;50.45;153047.67;1788698;79;21205;-71
2020/12/09 04:50:09;;;;;;;15.30;6.15;;;;;;;7.43;50.27;153064.67;1769153;79;21336;-71
2020/12/09 04:53:03;;;;;;;14.73;6.17;;;;;;;7.26;50.18;153020.22;1768588;79;21248;-72
2020/12/09 04:55:35;;;;;;;27.90;8.60;;;;;;;7.30;50.16;153030.69;1783421;79;21201;-72
2020/12/09 04:58:16;;;;;;;45.03;9.13;;;;;;;7.33;50.36;153037.20;1766953;80;21360;-72
2020/12/09 05:00:48;;;;;;;;;;;;;;;7.30;50.31;153029.34;1797965;79;21214;-72
2020/12/09 05:03:21;;;;;;;24.63;8.00;;;;;;;7.32;50.64;153034.59;1793917;79;20201;-72
2020/12/09 05:05:53;;;;;;;17.32;6.95;;;;;;;7.89;50.04;153183.59;1767828;79;21300;-71
2020/12/09 05:08:25;;;;;;;20.43;8.83;;;;;;;7.95;49.67;153199.31;1781626;79;21202;-71
2020/12/09 05:10:57;;;;;;;28.75;8.48;;;;;;;7.87;49.91;153178.41;1790977;79;21701;-72
2020/12/09 05:13:30;;;;;;;22.82;8.75;;;;;;;8.03;49.88;153220.20;1791600;79;22850;-71
2020/12/09 05:16:02;;;;;;;18.85;7.78;;;;;;;8.10;49.53;153241.13;1783985;79;21163;-72
2020/12/09 05:18:42;;;;;;;12.55;5.92;;;;;;;7.93;49.78;153194.06;1753802;80;21213;-71
2020/12/09 05:21:20;;;;;;;14.20;5.80;;;;;;;7.90;49.82;153186.20;1733040;81;21322;-71
2020/12/09 05:23:59;;;;;;;14.63;6.30;;;;;;;7.87;49.89;153178.41;1748572;79;21223;-72
2020/12/09 05:26:34;;;;;;;15.90;6.50;;;;;;;7.82;49.91;153166.59;1751407;80;21325;-72
2020/12/09 05:29:17;;;;;;;13.30;5.83;;;;;;;7.83;49.87;153169.22;1790393;79;21315;-71
2020/12/09 05:31:53;;;;;;;14.38;6.03;;;;;;;7.75;49.91;153148.31;1751780;79;21249;-72
2020/12/09 05:34:35;;;;;;;16.10;6.28;;;;;;;7.76;50.11;153149.59;1754137;80;21815;-72
2020/12/09 05:37:09;;;;;;;13.50;6.35;;;;;;;7.79;50.14;153157.45;1766670;80;21248;-72
2020/12/09 05:39:55;;;;;;;12.63;6.15;;;;;;;7.90;50.05;153186.20;1769903;80;21258;-71
2020/12/09 05:42:28;;;;;;;11.40;6.05;;;;;;;7.80;50.21;153161.41;1768175;81;21300;-71
2020/12/09 05:45:00;;;;;;;16.35;6.03;;;;;;;7.81;50.63;153163.97;1752526;80;21197;-71
2020/12/09 05:47:33;;;;;;;11.57;6.17;;;;;;;7.80;50.33;153160.06;1772160;80;21728;-71
2020/12/09 05:50:05;;;;;;;12.50;6.28;;;;;;;7.77;50.55;153152.22;1765343;81;21210;-71
2020/12/09 05:52:40;;;;;;;13.30;6.30;;;;;;;7.80;50.62;153160.06;1763688;80;21681;-73
2020/12/09 05:55:12;;;;;;;14.50;6.00;;;;;;;7.82;50.72;153165.31;1755643;81;21245;-71
2020/12/09 05:57:47;;;;;;;12.65;7.00;;;;;;;7.86;51.35;153175.78;1746033;81;21211;-73
2020/12/09 06:00:20;;;;;;;14.20;6.70;;;;;;;7.98;51.20;153207.16;1751670;81;21316;-72
2020/12/09 06:02:53;;;;;;;19.95;6.55;;;;;;;8.03;50.85;153222.83;1758436;80;21182;-73
2020/12/09 06:05:26;;;;;;;14.13;6.87;;;;;;;8.03;51.39;153221.55;1761980;81;21139;-73
2020/12/09 06:07:58;;;;;;;15.98;6.22;;;;;;;7.84;51.35;153170.55;1771577;80;21328;-72
2020/12/09 06:10:32;;;;;;;16.02;5.92;;;;;;;7.78;51.81;153154.83;1796251;79;21821;-73
2020/12/09 06:13:04;;;;;;;17.07;7.37;;;;;;;7.79;53.00;153158.78;1775038;79;21194;-73
2020/12/09 06:15:38;;;;;;;17.02;7.08;;;;;;;7.83;54.64;153169.22;1765275;80;21378;-73
2020/12/09 06:18:16;;;;;;;18.35;8.70;;;;;;;7.81;60.53;153163.97;1747018;80;21379;-74
2020/12/09 06:20:50;;;;;;;17.32;7.92;;;;;;;7.94;54.51;153196.69;1760676;80;21352;-73
2020/12/09 06:23:23;;;;;;;18.62;7.42;;;;;;;8.45;56.36;153332.72;1752275;80;21169;-73
2020/12/09 06:25:58;;;;;;;15.68;7.03;;;;;;;8.01;55.28;153216.31;1764633;81;21817;-73
2020/12/09 06:28:32;;;;;;;18.30;7.08;;;;;;;7.81;56.96;153162.69;1782942;79;21349;-72
2020/12/09 06:31:14;;;;;;;17.10;7.97;;;;;;;7.85;56.19;153174.44;1792206;79;21245;-74
2020/12/09 06:33:54;;;;;;;20.45;8.33;;;;;;;7.78;65.59;153156.16;1755556;80;21348;-76
2020/12/09 06:36:28;;;;;;;12.03;6.28;;;;;;;7.88;58.52;153180.97;1767953;79;21278;-75
2020/12/09 06:39:16;;;;;;;17.12;6.92;;;;;;;7.88;56.83;153182.30;1746899;79;21350;-72
2020/12/09 06:41:59;;;;;;;15.90;7.37;;;;;;;7.89;59.13;153184.92;1775401;79;21309;-73
2020/12/09 06:44:32;;;;;;;16.85;7.05;;;;;;;7.94;58.46;153196.69;1770058;80;21385;-71
2020/12/09 06:47:05;;;;;;;15.53;7.00;;;;;;;8.08;58.05;153235.92;1766264;80;21264;-73
2020/12/09 06:49:44;;;;;;;16.48;6.90;;;;;;;8.17;58.20;153258.17;1688168;79;21815;-72
2020/12/09 06:52:36;;;;;;;16.93;7.20;;;;;;;7.60;61.23;153107.80;1751495;80;21284;-72
2020/12/09 06:55:07;;;;;;;;;;;;;;;7.50;60.01;153081.66;1768421;80;21198;-72
2020/12/09 06:57:40;;;;;;;14.30;6.37;;;;;;;7.50;61.05;153082.94;1793708;79;20182;-72
2020/12/09 07:00:18;;;;;;;15.78;7.95;;;;;;;7.52;60.85;153086.89;1741215;81;21341;-73
2020/12/09 07:02:52;;;;;;;20.20;7.75;;;;;;;7.53;63.02;153089.47;1752299;80;21521;-73
2020/12/09 07:05:29;;;;;;;14.87;6.60;;;;;;;7.53;66.13;153090.80;1763581;81;21211;-72
2020/12/09 07:08:06;;;;;;;18.23;7.00;;;;;;;7.62;62.42;153113.03;1751002;80;21237;-72
2020/12/09 07:10:40;;;;;;;20.10;8.88;;;;;;;7.56;65.75;153098.66;1774743;79;21320;-71
2020/12/09 07:13:18;;;;;;;17.77;8.60;;;;;;;7.60;64.91;153109.08;1745140;79;21317;-72
2020/12/09 07:15:53;;;;;;;16.00;7.78;;;;;;;7.74;66.21;153144.41;1752129;81;21383;-72
2020/12/09 07:18:25;;;;;;;17.02;8.05;;;;;;;7.63;67.42;153116.94;1742854;81;21405;-72
2020/12/09 07:20:59;;;;;;;17.95;7.75;;;;;;;8.18;67.91;153262.12;1769234;79;22450;-74
2020/12/09 07:23:32;;;;;;;20.88;7.15;;;;;;;8.36;64.79;153309.19;1746317;80;21179;-70
2020/12/09 07:26:04;;;;;;;15.80;7.08;;;;;;;7.91;64.93;153188.83;1748550;81;21343;-69
2020/12/09 07:28:38;;;;;;;17.98;8.45;;;;;;;7.83;66.07;153169.22;1759723;80;21349;-70
2020/12/09 07:31:11;;;;;;;15.03;6.80;;;;;;;7.79;66.60;153158.78;1768839;80;21204;-72
2020/12/09 07:33:44;;;;;;;19.30;8.73;;;;;;;7.83;66.22;153169.22;1744074;81;21387;-71
2020/12/09 07:36:16;;;;;;;18.40;8.35;;;;;;;7.91;65.53;153188.83;1786373;79;21804;-71
2020/12/09 07:38:48;;;;;;;19.05;8.33;;;;;;;7.81;65.09;153162.69;1776960;79;21213;-68
2020/12/09 07:41:21;;;;;;;19.48;8.33;;;;;;;8.01;67.97;153216.31;1801530;79;21362;-70
2020/12/09 07:43:54;;;;;;;19.48;7.97;;;;;;;7.96;74.62;153201.92;1787818;79;21414;-71
2020/12/09 07:46:26;;;;;;;23.57;10.53;;;;;;;8.02;72.16;151783.84;1779660;79;21425;-68
2020/12/09 07:48:59;;;;;;;20.15;10.15;;;;;;;8.21;71.21;153269.98;1775728;79;21214;-77
2020/12/09 07:51:35;;;;;;;18.17;8.55;;;;;;;8.24;71.04;153276.50;1736070;81;21495;-73
2020/12/09 07:54:10;;;;;;;21.33;10.55;;;;;;;8.32;72.34;153298.75;1739801;80;21997;-78
2020/12/09 07:56:42;;;;;;;20.85;9.03;;;;;;;8.38;71.63;153313.14;1732655;80;21290;-84
2020/12/09 07:59:16;;;;;;;27.90;18.62;;;;;;;8.76;70.36;153413.88;1735246;80;21259;-73
2020/12/09 08:01:48;;;;;;;17.27;9.25;;;;;;;8.91;71.24;153453.14;1736045;81;21208;-71
2020/12/09 08:04:28;;;;;;;23.45;8.73;;;;;;;8.88;73.49;153445.28;1729157;81;21515;-67
2020/12/09 08:07:18;;;;;;;20.75;8.43;;;;;;;8.81;72.97;153426.92;1726053;81;21219;-70
2020/12/09 08:10:11;;;;;;;19.07;9.25;;;;;;;8.69;70.61;153395.52;1736202;80;21205;-71
2020/12/09 08:12:46;;;;;;;18.60;8.58;;;;;;;8.70;68.46;153396.86;1726340;81;21268;-72
2020/12/09 08:15:19;;;;;;;22.05;9.83;;;;;;;8.71;68.92;153399.47;1722124;81;21209;-71
2020/12/09 08:17:52;;;;;;;23.73;10.35;;;;;;;8.57;70.85;153364.13;1683097;80;21253;-72
2020/12/09 08:20:24;;;;;;;24.30;9.93;;;;;;;8.75;72.58;153411.25;1729259;80;21182;-72
2020/12/09 08:23:01;;;;;;;25.20;10.03;;;;;;;8.83;74.12;153430.87;1723366;81;21197;-75
2020/12/09 08:25:34;;;;;;;19.35;8.75;;;;;;;8.99;74.17;153475.34;1731021;81;21209;-72
2020/12/09 08:28:09;;;;;;;32.05;11.43;;;;;;;8.93;74.63;153457.05;1711497;81;22479;-69
2020/12/09 08:30:44;;;;;;;35.13;13.53;;;;;;;9.02;74.06;153483.22;1723467;81;21301;-70
2020/12/09 08:33:19;;;;;;;26.97;9.93;;;;;;;9.23;74.20;153538.19;1722047;81;21277;-70
2020/12/09 08:36:01;;;;;;;22.82;9.43;;;;;;;9.37;71.14;153574.86;1730076;81;21764;-74
2020/12/09 08:38:41;;;;;;;22.60;9.50;;;;;;;9.11;71.48;153505.48;1718014;81;21228;-76
2020/12/09 08:41:33;;;;;;;28.05;10.38;;;;;;;9.00;70.55;153476.69;1721533;79;21289;-74
2020/12/09 08:44:09;;;;;;;19.98;9.43;;;;;;;8.93;71.89;153457.05;1727881;80;21728;-69
2020/12/09 08:46:42;;;;;;;20.00;9.30;;;;;;;8.84;71.82;153434.80;1732592;80;21250;-71
2020/12/09 08:49:15;;;;;;;20.62;9.38;;;;;;;8.84;71.87;153433.50;1723583;80;21280;-71
2020/12/09 08:52:05;;;;;;;18.82;8.03;;;;;;;8.74;68.86;153407.34;1722947;80;22127;-70
2020/12/09 08:54:37;;;;;;;14.80;7.92;;;;;;;8.77;65.20;153415.16;1732008;80;21888;-68
2020/12/09 08:57:11;;;;;;;17.20;7.53;;;;;;;8.76;64.46;153413.88;1723711;81;21205;-71
2020/12/09 08:59:44;;;;;;;16.82;7.50;;;;;;;8.77;66.30;153415.16;1734208;81;21677;-72
2020/12/09 09:02:17;;;;;;;23.67;9.05;;;;;;;8.88;62.47;153443.94;1733420;81;21257;-73
2020/12/09 09:04:51;;;;;;;19.23;9.00;;;;;;;9.02;63.79;153481.94;1730393;81;21194;-73
2020/12/09 09:07:26;;;;;;;18.00;7.83;;;;;;;9.16;63.48;153518.55;1733201;80;21296;-75
2020/12/09 09:10:01;;;;;;;17.27;7.72;;;;;;;9.26;63.31;153544.72;1725801;81;21280;-74
2020/12/09 09:12:35;;;;;;;20.75;8.88;;;;;;;9.25;64.08;153542.14;1728034;80;21213;-77
2020/12/09 09:15:10;;;;;;;19.60;8.30;;;;;;;9.54;65.60;153619.39;1755604;79;21194;-70
2020/12/09 09:17:47;;;;;;;18.77;7.47;;;;;;;9.67;65.40;153652.12;1746406;79;21265;-76
2020/12/09 09:20:26;;;;;;;16.65;8.48;;;;;;;9.65;63.70;153646.86;1741067;79;21446;-71
2020/12/09 09:23:03;;;;;;;16.45;7.55;;;;;;;9.77;64.71;153679.64;1764440;79;21714;-71
2020/12/09 09:25:37;;;;;;;15.75;8.28;;;;;;;10.02;63.45;153745.14;1764261;79;21962;-72
2020/12/09 09:28:11;;;;;;;20.35;7.37;;;;;;;9.83;63.71;153695.33;1732278;80;21265;-73
2020/12/09 09:30:49;;;;;;;13.53;7.78;;;;;;;9.87;68.66;153705.83;1746695;80;21495;-74
2020/12/09 09:33:28;;;;;;;16.57;6.95;;;;;;;9.99;67.82;153737.31;1762605;79;21236;-74
2020/12/09 09:36:02;;;;;;;18.42;8.43;;;;;;;10.14;64.76;153776.59;1722523;81;21783;-83
2020/12/09 09:38:36;;;;;;;19.23;8.43;;;;;;;10.18;63.26;153787.08;1765248;79;21356;-84
2020/12/09 09:41:09;;;;;;;18.17;8.43;;;;;;;10.16;62.04;153781.84;1768697;79;21890;-75
2020/12/09 09:43:43;;;;;;;21.50;8.38;;;;;;;10.16;64.47;153783.17;1734583;81;21955;-75
2020/12/09 09:46:18;;;;;;;18.50;8.60;;;;;;;10.23;64.35;153800.22;1739171;81;21470;-75
2020/12/09 09:48:53;;;;;;;19.20;9.30;;;;;;;10.41;63.00;153848.70;1742537;81;21302;-73
2020/12/09 09:51:27;;;;;;;15.38;7.92;;;;;;;10.56;64.69;153887.98;1739264;80;21987;-76
2020/12/09 09:54:03;;;;;;;18.92;8.13;;;;;;;10.59;61.01;153894.58;1746631;80;21761;-73
2020/12/09 09:56:38;;;;;;;18.23;8.35;;;;;;;10.70;60.62;153923.41;1734022;80;21399;-77
2020/12/09 09:59:13;;;;;;;16.40;7.60;;;;;;;10.72;61.22;153928.61;1735088;80;22275;-74
2020/12/09 10:01:47;;;;;;;17.55;8.40;;;;;;;10.67;61.96;153916.81;1739231;80;21272;-73
2020/12/09 10:05:01;;;;;;;15.30;7.55;;;;;;;10.70;61.08;153923.41;1732731;81;21732;-81
2020/12/09 10:07:55;;;;;;;20.95;8.95;;;;;;;10.55;60.99;153885.36;1765567;80;21179;-70
2020/12/09 10:10:40;;;;;;;22.07;8.53;;;;;;;10.38;58.81;153840.83;1761062;80;21220;-75
2020/12/09 10:13:13;;;;;;;25.77;9.35;;;;;;;10.43;59.86;153853.91;1729510;80;21238;-74
2020/12/09 10:15:46;;;;;;;15.00;8.08;;;;;;;10.42;59.78;153849.98;1736743;80;21749;-72
2020/12/09 10:18:19;;;;;;;21.12;8.80;;;;;;;10.34;58.10;153830.33;1740011;80;21768;-74
2020/12/09 10:20:52;;;;;;;18.52;7.87;;;;;;;10.35;59.40;153832.95;1740847;80;21954;-74
2020/12/09 10:27:27;;;;;;;21.10;9.95;;;;;;;10.27;58.52;153812.00;1746638;80;21403;-80
2020/12/09 10:34:15;;;;;;;21.02;8.90;;;;;;;10.24;59.52;153804.12;1740631;81;21237;-79
2020/12/09 10:37:30;;;;;;;20.92;9.58;;;;;;;10.22;59.09;153798.88;1768999;79;21183;-80
2020/12/09 10:40:43;;;;;;;20.27;8.58;;;;;;;10.16;60.85;153781.84;1749797;80;21201;-77
2020/12/09 10:43:17;;;;;;;20.27;8.43;;;;;;;10.14;58.01;153776.59;1723241;80;21551;-73
2020/12/09 10:45:51;;;;;;;17.07;8.03;;;;;;;10.12;58.30;153771.39;1740015;79;21237;-73
2020/12/09 10:48:24;;;;;;;18.65;8.05;;;;;;;10.01;58.54;153742.56;1759708;80;21214;-80
2020/12/09 10:50:57;;;;;;;19.57;7.55;;;;;;;9.97;58.63;153733.31;1767795;78;21257;-80
2020/12/09 10:53:29;;;;;;;18.85;8.20;;;;;;;9.90;57.45;153713.64;1750493;79;21241;-77
2020/12/09 10:56:06;;;;;;;21.37;10.20;;;;;;;9.98;57.47;153735.98;1741977;80;21278;-77
2020/12/09 10:58:47;;;;;;;20.12;10.70;;;;;;;10.03;57.41;153749.11;1723116;80;21360;-76
2020/12/09 11:01:21;;;;;;;19.67;8.05;;;;;;;10.07;58.85;153759.55;1726764;81;21254;-79
2020/12/09 11:03:56;;;;;;;18.32;7.15;;;;;;;9.92;57.43;153718.89;1726997;81;21277;-84
2020/12/09 11:06:39;;;;;;;18.48;8.30;;;;;;;9.83;58.07;153695.33;1734749;81;21245;-80
2020/12/09 11:09:31;;;;;;;16.52;7.75;;;;;;;9.75;59.54;153673.05;1745620;79;21255;-79
2020/12/09 11:12:07;;;;;;;15.23;8.08;;;;;;;9.63;56.99;153641.62;1774847;79;21368;-75
2020/12/09 11:14:40;;;;;;;14.43;7.95;;;;;;;9.81;58.85;153688.80;1724760;81;21193;-79
2020/12/09 11:17:13;;;;;;;15.43;7.20;;;;;;;9.85;57.50;153701.86;1735497;81;21988;-74
2020/12/09 11:19:46;;;;;;;22.15;8.13;;;;;;;9.99;57.67;153737.31;1768504;79;21273;-82
2020/12/09 11:22:20;;;;;;;15.20;7.35;;;;;;;10.09;59.54;153763.52;1772264;79;21273;-81
2020/12/09 11:28:20;;;;;;;17.00;8.15;;;;;;;10.06;60.54;153755.64;1728836;81;21367;-77
2020/12/09 11:30:55;;;;;;;15.83;7.90;;;;;;;9.98;58.66;153734.64;1738241;79;21218;-79
2020/12/09 11:33:29;;;;;;;18.85;8.70;;;;;;;10.00;58.52;153739.94;1744854;81;21331;-76
2020/12/09 11:40:00;;;;;;;18.77;8.23;;;;;;;9.87;57.91;153705.83;1751962;80;21281;-77
2020/12/09 11:42:37;;;;;;;17.92;7.47;;;;;;;9.82;58.62;153692.70;1745943;79;21766;-74
2020/12/09 11:45:13;;;;;;;14.85;7.40;;;;;;;9.80;57.86;153686.17;1771107;79;21488;-75
2020/12/09 11:48:16;;;;;;;14.93;7.12;;;;;;;9.73;58.19;153669.14;1784107;78;21399;-71
2020/12/09 11:51:19;;;;;;;16.50;6.95;;;;;;;9.70;56.89;153661.27;1743170;80;21241;-71
2020/12/09 11:54:14;;;;;;;14.70;8.00;;;;;;;9.78;57.36;153680.92;1736085;81;21732;-76
2020/12/09 11:57:30;;;;;;;17.50;7.37;;;;;;;9.78;56.92;153682.22;1777180;79;21214;-72
2020/12/09 12:00:28;;;;;;;16.75;7.37;;;;;;;9.79;56.34;153683.55;1737001;80;21183;-73
2020/12/09 12:03:00;;;;;;;20.43;7.65;;;;;;;9.61;57.71;153636.37;1783033;78;21209;-74
2020/12/09 12:05:35;;;;;;;15.38;7.50;;;;;;;9.76;58.92;153675.67;1727570;81;21243;-73
2020/12/09 12:08:07;;;;;;;22.25;9.85;;;;;;;9.80;60.08;153686.17;1728848;81;21251;-74
2020/12/09 12:10:40;;;;;;;21.10;9.53;;;;;;;9.84;57.58;153696.66;1730894;81;21245;-71
2020/12/09 12:13:12;;;;;;;17.10;7.28;;;;;;;9.74;57.72;153671.77;1739187;80;21218;-75
2020/12/09 12:15:46;;;;;;;17.62;8.48;;;;;;;9.68;57.79;153654.73;1726547;81;21254;-77
2020/12/09 12:18:21;;;;;;;17.55;7.83;;;;;;;9.68;57.91;153654.73;1739739;81;21903;-75
2020/12/09 12:20:53;;;;;;;21.12;8.55;;;;;;;9.58;58.42;153628.55;1743832;80;21238;-71